sensor_id;sensor_type;location;lat;lon;timestamp;temperature;humidity
2212;DHT22;48849;48.758;9.158;2022-10-31T00:01:11;16.00;99.90
2212;DHT22;48849;48.758;9.158;2022-10-31T00:03:38;16.10;99.90
2212;DHT22;48849;48.758;9.158;2022-10-31T00:06:05;16.00;99.90
2212;DHT22;48849;48.758;9.158;2022-10-31T00:08:33;16.00;99.90
2212;DHT22;48849;48.758;9.158;2022-10-31T00:11:00;16.00;99.90
2212;DHT22;48849;48.758;9.158;2022-10-31T00:13:27;16.00;99.90
2212;DHT22;48849;48.758;9.158;2022-10-31T00:15:53;16.00;99.90
2212;DHT22;48849;48.758;9.158;2022-10-31T00:18:20;15.90;99.90
2212;DHT22;48849;48.758;9.158;2022-10-31T00:20:47;16.00;99.90
2212;DHT22;48849;48.758;9.158;2022-10-31T00:23:14;16.10;99.90
2212;DHT22;48849;48.758;9.158;2022-10-31T00:25:42;16.00;99.90
2212;DHT22;48849;48.758;9.158;2022-10-31T00:28:09;16.10;99.90
2212;DHT22;48849;48.758;9.158;2022-10-31T00:30:37;16.00;99.90
2212;DHT22;48849;48.758;9.158;2022-10-31T00:33:04;16.00;99.90
2212;DHT22;48849;48.758;9.158;2022-10-31T00:35:31;16.20;99.90
2212;DHT22;48849;48.758;9.158;2022-10-31T00:37:57;15.90;99.90
2212;DHT22;48849;48.758;9.158;2022-10-31T00:40:24;16.00;99.90
2212;DHT22;48849;48.758;9.158;2022-10-31T00:42:52;15.90;99.90
2212;DHT22;48849;48.758;9.158;2022-10-31T00:45:19;15.90;99.90
2212;DHT22;48849;48.758;9.158;2022-10-31T00:47:45;15.90;99.90
2212;DHT22;48849;48.758;9.158;2022-10-31T00:50:12;15.80;99.90
2212;DHT22;48849;48.758;9.158;2022-10-31T00:52:39;15.90;99.90
2212;DHT22;48849;48.758;9.158;2022-10-31T00:55:06;16.70;99.90
2212;DHT22;48849;48.758;9.158;2022-10-31T00:57:33;15.80;99.90
2212;DHT22;48849;48.758;9.158;2022-10-31T01:00:01;15.80;99.90
2212;DHT22;48849;48.758;9.158;2022-10-31T01:02:27;15.90;99.90
2212;DHT22;48849;48.758;9.158;2022-10-31T01:04:54;15.80;99.90
2212;DHT22;48849;48.758;9.158;2022-10-31T01:07:21;15.80;99.90
2212;DHT22;48849;48.758;9.158;2022-10-31T01:09:47;15.80;99.90
2212;DHT22;48849;48.758;9.158;2022-10-31T01:12:14;15.80;99.90
2212;DHT22;48849;48.758;9.158;2022-10-31T01:14:43;15.80;99.90
2212;DHT22;48849;48.758;9.158;2022-10-31T01:17:12;16.30;99.90
2212;DHT22;48849;48.758;9.158;2022-10-31T01:19:39;15.70;99.90
2212;DHT22;48849;48.758;9.158;2022-10-31T01:22:06;15.80;99.90
2212;DHT22;48849;48.758;9.158;2022-10-31T01:24:33;15.80;99.90
2212;DHT22;48849;48.758;9.158;2022-10-31T01:26:59;15.80;99.90
2212;DHT22;48849;48.758;9.158;2022-10-31T01:29:26;16.50;99.90
2212;DHT22;48849;48.758;9.158;2022-10-31T01:31:53;15.80;99.90
2212;DHT22;48849;48.758;9.158;2022-10-31T01:34:21;16.20;99.90
2212;DHT22;48849;48.758;9.158;2022-10-31T01:36:47;15.80;99.90
2212;DHT22;48849;48.758;9.158;2022-10-31T01:39:17;15.80;99.90
2212;DHT22;48849;48.758;9.158;2022-10-31T01:41:46;15.80;99.90
2212;DHT22;48849;48.758;9.158;2022-10-31T01:44:48;15.80;99.90
2212;DHT22;48849;48.758;9.158;2022-10-31T01:47:19;15.80;99.90
2212;DHT22;48849;48.758;9.158;2022-10-31T01:49:51;15.80;99.90
2212;DHT22;48849;48.758;9.158;2022-10-31T01:52:21;15.80;99.90
2212;DHT22;48849;48.758;9.158;2022-10-31T01:54:54;15.80;99.90
2212;DHT22;48849;48.758;9.158;2022-10-31T01:57:22;15.70;99.90
2212;DHT22;48849;48.758;9.158;2022-10-31T01:59:54;15.60;99.90
2212;DHT22;48849;48.758;9.158;2022-10-31T02:02:21;15.70;99.90
2212;DHT22;48849;48.758;9.158;2022-10-31T02:04:49;15.80;99.90
2212;DHT22;48849;48.758;9.158;2022-10-31T02:07:20;15.80;99.90
2212;DHT22;48849;48.758;9.158;2022-10-31T02:09:49;15.80;99.90
2212;DHT22;48849;48.758;9.158;2022-10-31T02:12:17;15.90;99.90
2212;DHT22;48849;48.758;9.158;2022-10-31T02:14:45;15.90;99.90
2212;DHT22;48849;48.758;9.158;2022-10-31T02:17:13;15.90;99.90
2212;DHT22;48849;48.758;9.158;2022-10-31T02:19:46;16.00;99.90
2212;DHT22;48849;48.758;9.158;2022-10-31T02:22:21;16.00;99.90
2212;DHT22;48849;48.758;9.158;2022-10-31T02:25:02;16.00;99.90
2212;DHT22;48849;48.758;9.158;2022-10-31T02:27:52;16.00;99.90
2212;DHT22;48849;48.758;9.158;2022-10-31T02:30:21;16.00;99.90
2212;DHT22;48849;48.758;9.158;2022-10-31T02:32:56;16.00;99.90
2212;DHT22;48849;48.758;9.158;2022-10-31T02:35:31;16.00;99.90
2212;DHT22;48849;48.758;9.158;2022-10-31T02:38:06;15.70;99.90
2212;DHT22;48849;48.758;9.158;2022-10-31T02:40:43;16.20;99.90
2212;DHT22;48849;48.758;9.158;2022-10-31T02:43:20;16.30;99.90
2212;DHT22;48849;48.758;9.158;2022-10-31T02:45:51;16.00;99.90
2212;DHT22;48849;48.758;9.158;2022-10-31T02:48:26;15.90;99.90
2212;DHT22;48849;48.758;9.158;2022-10-31T02:50:56;16.40;99.90
2212;DHT22;48849;48.758;9.158;2022-10-31T02:53:24;15.90;99.90
2212;DHT22;48849;48.758;9.158;2022-10-31T02:55:58;15.90;99.90
2212;DHT22;48849;48.758;9.158;2022-10-31T02:58:28;15.90;99.90
2212;DHT22;48849;48.758;9.158;2022-10-31T03:01:22;15.80;99.90
2212;DHT22;48849;48.758;9.158;2022-10-31T03:04:02;15.80;99.90
2212;DHT22;48849;48.758;9.158;2022-10-31T03:06:33;15.80;99.90
2212;DHT22;48849;48.758;9.158;2022-10-31T03:09:10;15.80;99.90
2212;DHT22;48849;48.758;9.158;2022-10-31T03:11:44;15.80;99.90
2212;DHT22;48849;48.758;9.158;2022-10-31T03:14:18;15.80;99.90
2212;DHT22;48849;48.758;9.158;2022-10-31T03:16:48;15.80;99.90
2212;DHT22;48849;48.758;9.158;2022-10-31T03:19:19;15.70;99.90
2212;DHT22;48849;48.758;9.158;2022-10-31T03:21:53;15.70;99.90
2212;DHT22;48849;48.758;9.158;2022-10-31T03:24:30;15.70;99.90
2212;DHT22;48849;48.758;9.158;2022-10-31T03:26:59;15.70;99.90
2212;DHT22;48849;48.758;9.158;2022-10-31T03:29:29;16.10;99.90
2212;DHT22;48849;48.758;9.158;2022-10-31T03:32:03;15.60;99.90
2212;DHT22;48849;48.758;9.158;2022-10-31T03:34:35;15.60;99.90
2212;DHT22;48849;48.758;9.158;2022-10-31T03:37:06;15.60;99.90
2212;DHT22;48849;48.758;9.158;2022-10-31T03:39:34;15.60;99.90
2212;DHT22;48849;48.758;9.158;2022-10-31T03:42:05;15.50;99.90
2212;DHT22;48849;48.758;9.158;2022-10-31T03:44:35;15.50;99.90
2212;DHT22;48849;48.758;9.158;2022-10-31T03:47:03;15.60;99.90
2212;DHT22;48849;48.758;9.158;2022-10-31T03:49:31;15.50;99.90
2212;DHT22;48849;48.758;9.158;2022-10-31T03:52:02;15.50;99.90
2212;DHT22;48849;48.758;9.158;2022-10-31T03:54:36;15.50;99.90
2212;DHT22;48849;48.758;9.158;2022-10-31T03:57:08;16.20;99.90
2212;DHT22;48849;48.758;9.158;2022-10-31T03:59:39;15.50;99.90
2212;DHT22;48849;48.758;9.158;2022-10-31T04:02:10;15.50;99.90
2212;DHT22;48849;48.758;9.158;2022-10-31T04:04:39;15.50;99.90
2212;DHT22;48849;48.758;9.158;2022-10-31T04:07:09;16.20;99.90
2212;DHT22;48849;48.758;9.158;2022-10-31T04:09:38;15.50;99.90
2212;DHT22;48849;48.758;9.158;2022-10-31T04:12:08;15.40;99.90
2212;DHT22;48849;48.758;9.158;2022-10-31T04:14:37;15.40;99.90
2212;DHT22;48849;48.758;9.158;2022-10-31T04:17:09;15.40;99.90
2212;DHT22;48849;48.758;9.158;2022-10-31T04:19:36;15.60;99.90
2212;DHT22;48849;48.758;9.158;2022-10-31T04:22:03;15.30;99.90
2212;DHT22;48849;48.758;9.158;2022-10-31T04:24:31;15.30;99.90
2212;DHT22;48849;48.758;9.158;2022-10-31T04:26:58;15.50;99.90
2212;DHT22;48849;48.758;9.158;2022-10-31T04:29:25;15.30;99.90
2212;DHT22;48849;48.758;9.158;2022-10-31T04:31:51;15.30;99.90
2212;DHT22;48849;48.758;9.158;2022-10-31T04:34:18;15.50;99.90
2212;DHT22;48849;48.758;9.158;2022-10-31T04:36:45;15.30;99.90
2212;DHT22;48849;48.758;9.158;2022-10-31T04:39:11;15.30;99.90
2212;DHT22;48849;48.758;9.158;2022-10-31T04:41:39;15.30;99.90
2212;DHT22;48849;48.758;9.158;2022-10-31T04:44:06;15.30;99.90
2212;DHT22;48849;48.758;9.158;2022-10-31T04:46:33;15.20;99.90
2212;DHT22;48849;48.758;9.158;2022-10-31T04:49:00;15.20;99.90
2212;DHT22;48849;48.758;9.158;2022-10-31T04:51:26;15.30;99.90
2212;DHT22;48849;48.758;9.158;2022-10-31T04:53:53;15.40;99.90
2212;DHT22;48849;48.758;9.158;2022-10-31T04:56:20;15.20;99.90
2212;DHT22;48849;48.758;9.158;2022-10-31T04:58:48;15.20;99.90
2212;DHT22;48849;48.758;9.158;2022-10-31T05:01:14;15.20;99.90
2212;DHT22;48849;48.758;9.158;2022-10-31T05:03:41;15.10;99.90
2212;DHT22;48849;48.758;9.158;2022-10-31T05:06:08;15.10;99.90
2212;DHT22;48849;48.758;9.158;2022-10-31T05:08:35;15.10;99.90
2212;DHT22;48849;48.758;9.158;2022-10-31T05:11:02;15.10;99.90
2212;DHT22;48849;48.758;9.158;2022-10-31T05:13:30;15.10;99.90
2212;DHT22;48849;48.758;9.158;2022-10-31T05:15:58;15.10;99.90
2212;DHT22;48849;48.758;9.158;2022-10-31T05:18:24;15.00;99.90
2212;DHT22;48849;48.758;9.158;2022-10-31T05:20:51;15.00;99.90
2212;DHT22;48849;48.758;9.158;2022-10-31T05:23:18;15.00;99.90
2212;DHT22;48849;48.758;9.158;2022-10-31T05:25:44;15.00;99.90
2212;DHT22;48849;48.758;9.158;2022-10-31T05:28:11;14.90;99.90
2212;DHT22;48849;48.758;9.158;2022-10-31T05:30:38;14.90;99.90
2212;DHT22;48849;48.758;9.158;2022-10-31T05:33:06;14.90;99.90
2212;DHT22;48849;48.758;9.158;2022-10-31T05:35:33;14.90;99.90
2212;DHT22;48849;48.758;9.158;2022-10-31T05:37:59;14.90;99.90
2212;DHT22;48849;48.758;9.158;2022-10-31T05:40:27;14.90;99.90
2212;DHT22;48849;48.758;9.158;2022-10-31T05:42:56;14.80;99.90
2212;DHT22;48849;48.758;9.158;2022-10-31T05:45:23;14.80;99.90
2212;DHT22;48849;48.758;9.158;2022-10-31T05:47:51;14.90;99.90
2212;DHT22;48849;48.758;9.158;2022-10-31T05:50:20;14.80;99.90
2212;DHT22;48849;48.758;9.158;2022-10-31T05:52:47;14.90;99.90
2212;DHT22;48849;48.758;9.158;2022-10-31T05:55:14;14.80;99.90
2212;DHT22;48849;48.758;9.158;2022-10-31T05:57:40;14.80;99.90
2212;DHT22;48849;48.758;9.158;2022-10-31T06:00:08;14.90;99.90
2212;DHT22;48849;48.758;9.158;2022-10-31T06:02:35;14.90;99.90
2212;DHT22;48849;48.758;9.158;2022-10-31T06:05:02;14.90;99.90
2212;DHT22;48849;48.758;9.158;2022-10-31T06:07:34;14.90;99.90
2212;DHT22;48849;48.758;9.158;2022-10-31T06:10:01;14.90;99.90
2212;DHT22;48849;48.758;9.158;2022-10-31T06:12:29;14.90;99.90
2212;DHT22;48849;48.758;9.158;2022-10-31T06:14:55;14.90;99.90
2212;DHT22;48849;48.758;9.158;2022-10-31T06:17:22;14.90;99.90
2212;DHT22;48849;48.758;9.158;2022-10-31T06:19:49;14.90;99.90
2212;DHT22;48849;48.758;9.158;2022-10-31T06:22:16;14.90;99.90
2212;DHT22;48849;48.758;9.158;2022-10-31T06:24:44;14.90;99.90
2212;DHT22;48849;48.758;9.158;2022-10-31T06:27:10;14.90;99.90
2212;DHT22;48849;48.758;9.158;2022-10-31T06:29:37;14.90;99.90
2212;DHT22;48849;48.758;9.158;2022-10-31T06:32:04;15.00;99.90
2212;DHT22;48849;48.758;9.158;2022-10-31T06:34:31;14.80;99.90
2212;DHT22;48849;48.758;9.158;2022-10-31T06:36:57;15.00;99.90
2212;DHT22;48849;48.758;9.158;2022-10-31T06:39:24;14.90;99.90
2212;DHT22;48849;48.758;9.158;2022-10-31T06:41:52;14.90;99.90
2212;DHT22;48849;48.758;9.158;2022-10-31T06:44:19;14.90;99.90
2212;DHT22;48849;48.758;9.158;2022-10-31T06:46:46;14.80;99.90
2212;DHT22;48849;48.758;9.158;2022-10-31T06:49:13;14.80;99.90
2212;DHT22;48849;48.758;9.158;2022-10-31T06:51:40;14.80;99.90
2212;DHT22;48849;48.758;9.158;2022-10-31T06:54:07;14.90;99.90
2212;DHT22;48849;48.758;9.158;2022-10-31T06:56:34;14.80;99.90
2212;DHT22;48849;48.758;9.158;2022-10-31T06:59:02;15.20;99.90
2212;DHT22;48849;48.758;9.158;2022-10-31T07:01:29;14.90;99.90
2212;DHT22;48849;48.758;9.158;2022-10-31T07:03:56;14.90;99.90
2212;DHT22;48849;48.758;9.158;2022-10-31T07:06:22;14.80;99.90
2212;DHT22;48849;48.758;9.158;2022-10-31T07:08:49;14.80;99.90
2212;DHT22;48849;48.758;9.158;2022-10-31T07:11:16;14.80;99.90
2212;DHT22;48849;48.758;9.158;2022-10-31T07:13:43;14.90;99.90
2212;DHT22;48849;48.758;9.158;2022-10-31T07:16:11;14.90;99.90
2212;DHT22;48849;48.758;9.158;2022-10-31T07:18:39;15.00;99.90
2212;DHT22;48849;48.758;9.158;2022-10-31T07:21:06;15.00;99.90
2212;DHT22;48849;48.758;9.158;2022-10-31T07:23:32;15.10;99.90
2212;DHT22;48849;48.758;9.158;2022-10-31T07:25:59;15.20;99.90
2212;DHT22;48849;48.758;9.158;2022-10-31T07:28:27;15.10;99.90
2212;DHT22;48849;48.758;9.158;2022-10-31T07:30:55;15.10;99.90
2212;DHT22;48849;48.758;9.158;2022-10-31T07:33:23;15.20;99.90
2212;DHT22;48849;48.758;9.158;2022-10-31T07:35:51;15.20;99.90
2212;DHT22;48849;48.758;9.158;2022-10-31T07:38:18;15.20;99.90
2212;DHT22;48849;48.758;9.158;2022-10-31T07:40:49;15.20;99.90
2212;DHT22;48849;48.758;9.158;2022-10-31T07:43:16;15.20;99.90
2212;DHT22;48849;48.758;9.158;2022-10-31T07:45:43;15.20;99.90
2212;DHT22;48849;48.758;9.158;2022-10-31T07:48:10;15.20;99.90
2212;DHT22;48849;48.758;9.158;2022-10-31T07:50:38;15.20;99.90
2212;DHT22;48849;48.758;9.158;2022-10-31T07:53:06;15.30;99.90
2212;DHT22;48849;48.758;9.158;2022-10-31T07:55:34;15.30;99.90
2212;DHT22;48849;48.758;9.158;2022-10-31T07:58:02;15.30;99.90
2212;DHT22;48849;48.758;9.158;2022-10-31T08:00:30;15.30;99.90
2212;DHT22;48849;48.758;9.158;2022-10-31T08:02:57;15.30;99.90
2212;DHT22;48849;48.758;9.158;2022-10-31T08:05:24;15.30;99.90
2212;DHT22;48849;48.758;9.158;2022-10-31T08:07:52;15.30;99.90
2212;DHT22;48849;48.758;9.158;2022-10-31T08:10:20;15.30;99.90
2212;DHT22;48849;48.758;9.158;2022-10-31T08:12:46;15.30;99.90
2212;DHT22;48849;48.758;9.158;2022-10-31T08:15:13;15.40;99.90
2212;DHT22;48849;48.758;9.158;2022-10-31T08:17:40;15.40;99.90
2212;DHT22;48849;48.758;9.158;2022-10-31T08:20:08;15.40;99.90
2212;DHT22;48849;48.758;9.158;2022-10-31T08:22:34;15.50;99.90
2212;DHT22;48849;48.758;9.158;2022-10-31T08:25:03;15.50;99.90
2212;DHT22;48849;48.758;9.158;2022-10-31T08:27:30;15.50;99.90
2212;DHT22;48849;48.758;9.158;2022-10-31T08:29:56;15.50;99.90
2212;DHT22;48849;48.758;9.158;2022-10-31T08:32:23;15.50;99.90
2212;DHT22;48849;48.758;9.158;2022-10-31T08:34:50;15.60;99.90
2212;DHT22;48849;48.758;9.158;2022-10-31T08:37:17;15.60;99.90
2212;DHT22;48849;48.758;9.158;2022-10-31T08:39:45;15.60;99.90
2212;DHT22;48849;48.758;9.158;2022-10-31T08:42:13;15.60;99.90
2212;DHT22;48849;48.758;9.158;2022-10-31T08:44:40;15.60;99.90
2212;DHT22;48849;48.758;9.158;2022-10-31T08:47:07;15.70;99.90
2212;DHT22;48849;48.758;9.158;2022-10-31T08:49:33;15.70;99.90
2212;DHT22;48849;48.758;9.158;2022-10-31T08:52:00;15.70;99.90
2212;DHT22;48849;48.758;9.158;2022-10-31T08:54:27;15.70;99.90
2212;DHT22;48849;48.758;9.158;2022-10-31T08:56:54;15.70;99.90
2212;DHT22;48849;48.758;9.158;2022-10-31T08:59:23;15.80;99.90
2212;DHT22;48849;48.758;9.158;2022-10-31T09:01:49;15.80;99.90
2212;DHT22;48849;48.758;9.158;2022-10-31T09:04:16;15.80;99.90
2212;DHT22;48849;48.758;9.158;2022-10-31T09:06:43;15.80;99.90
2212;DHT22;48849;48.758;9.158;2022-10-31T09:09:09;15.90;99.90
2212;DHT22;48849;48.758;9.158;2022-10-31T09:11:36;15.90;99.90
2212;DHT22;48849;48.758;9.158;2022-10-31T09:14:03;15.90;99.90
2212;DHT22;48849;48.758;9.158;2022-10-31T09:16:31;15.90;99.90
2212;DHT22;48849;48.758;9.158;2022-10-31T09:18:57;15.90;99.90
2212;DHT22;48849;48.758;9.158;2022-10-31T09:21:24;16.00;99.90
2212;DHT22;48849;48.758;9.158;2022-10-31T09:23:51;16.00;99.90
2212;DHT22;48849;48.758;9.158;2022-10-31T09:26:19;16.00;99.90
2212;DHT22;48849;48.758;9.158;2022-10-31T09:28:46;16.00;99.90
2212;DHT22;48849;48.758;9.158;2022-10-31T09:31:12;16.10;99.90
2212;DHT22;48849;48.758;9.158;2022-10-31T09:33:40;16.10;99.90
2212;DHT22;48849;48.758;9.158;2022-10-31T09:36:08;16.10;99.90
2212;DHT22;48849;48.758;9.158;2022-10-31T09:38:35;16.20;99.90
2212;DHT22;48849;48.758;9.158;2022-10-31T09:41:05;16.20;99.90
2212;DHT22;48849;48.758;9.158;2022-10-31T09:43:39;16.20;99.90
2212;DHT22;48849;48.758;9.158;2022-10-31T09:46:17;16.20;99.90
2212;DHT22;48849;48.758;9.158;2022-10-31T09:48:56;16.20;99.90
2212;DHT22;48849;48.758;9.158;2022-10-31T09:51:29;16.30;99.90
2212;DHT22;48849;48.758;9.158;2022-10-31T09:54:02;16.30;99.90
2212;DHT22;48849;48.758;9.158;2022-10-31T09:56:32;16.30;99.90
2212;DHT22;48849;48.758;9.158;2022-10-31T09:59:02;16.20;99.90
2212;DHT22;48849;48.758;9.158;2022-10-31T10:01:34;16.30;99.90
2212;DHT22;48849;48.758;9.158;2022-10-31T10:04:09;16.40;99.90
2212;DHT22;48849;48.758;9.158;2022-10-31T10:06:43;16.40;99.90
2212;DHT22;48849;48.758;9.158;2022-10-31T10:09:11;16.40;99.90
2212;DHT22;48849;48.758;9.158;2022-10-31T10:11:47;16.40;99.90
2212;DHT22;48849;48.758;9.158;2022-10-31T10:14:35;16.90;99.90
2212;DHT22;48849;48.758;9.158;2022-10-31T10:17:15;16.40;99.90
2212;DHT22;48849;48.758;9.158;2022-10-31T10:19:55;16.50;99.90
2212;DHT22;48849;48.758;9.158;2022-10-31T10:22:28;16.50;99.90
2212;DHT22;48849;48.758;9.158;2022-10-31T10:25:09;16.50;99.90
2212;DHT22;48849;48.758;9.158;2022-10-31T10:27:49;16.60;99.90
2212;DHT22;48849;48.758;9.158;2022-10-31T10:30:18;16.60;99.90
2212;DHT22;48849;48.758;9.158;2022-10-31T10:32:47;16.60;99.90
2212;DHT22;48849;48.758;9.158;2022-10-31T10:35:22;16.60;99.90
2212;DHT22;48849;48.758;9.158;2022-10-31T10:37:52;16.60;99.90
2212;DHT22;48849;48.758;9.158;2022-10-31T10:40:21;16.70;99.90
2212;DHT22;48849;48.758;9.158;2022-10-31T10:42:59;16.70;99.90
2212;DHT22;48849;48.758;9.158;2022-10-31T10:45:48;16.70;99.90
2212;DHT22;48849;48.758;9.158;2022-10-31T10:48:41;16.80;99.90
2212;DHT22;48849;48.758;9.158;2022-10-31T10:51:21;16.70;99.90
2212;DHT22;48849;48.758;9.158;2022-10-31T10:54:01;16.80;99.90
2212;DHT22;48849;48.758;9.158;2022-10-31T10:56:45;16.80;99.90
2212;DHT22;48849;48.758;9.158;2022-10-31T10:59:17;16.80;99.90
2212;DHT22;48849;48.758;9.158;2022-10-31T11:01:45;16.80;99.90
2212;DHT22;48849;48.758;9.158;2022-10-31T11:04:30;16.90;99.90
2212;DHT22;48849;48.758;9.158;2022-10-31T11:07:00;16.80;99.90
2212;DHT22;48849;48.758;9.158;2022-10-31T11:09:27;16.90;99.90
2212;DHT22;48849;48.758;9.158;2022-10-31T11:11:54;16.90;99.90
2212;DHT22;48849;48.758;9.158;2022-10-31T11:14:22;16.90;99.90
2212;DHT22;48849;48.758;9.158;2022-10-31T11:16:51;16.90;99.90
2212;DHT22;48849;48.758;9.158;2022-10-31T11:19:22;16.90;99.90
2212;DHT22;48849;48.758;9.158;2022-10-31T11:21:49;17.00;99.90
2212;DHT22;48849;48.758;9.158;2022-10-31T11:24:20;17.00;99.90
2212;DHT22;48849;48.758;9.158;2022-10-31T11:26:48;17.10;99.90
2212;DHT22;48849;48.758;9.158;2022-10-31T11:29:19;17.10;99.90
2212;DHT22;48849;48.758;9.158;2022-10-31T11:31:47;17.10;99.90
2212;DHT22;48849;48.758;9.158;2022-10-31T11:34:26;17.20;99.90
2212;DHT22;48849;48.758;9.158;2022-10-31T11:36:53;17.20;99.90
2212;DHT22;48849;48.758;9.158;2022-10-31T11:39:23;17.20;99.90
2212;DHT22;48849;48.758;9.158;2022-10-31T11:41:52;17.20;99.90
2212;DHT22;48849;48.758;9.158;2022-10-31T11:44:22;17.20;99.90
2212;DHT22;48849;48.758;9.158;2022-10-31T11:46:52;17.20;99.90
2212;DHT22;48849;48.758;9.158;2022-10-31T11:49:25;17.30;99.90
2212;DHT22;48849;48.758;9.158;2022-10-31T11:51:56;17.30;99.90
2212;DHT22;48849;48.758;9.158;2022-10-31T11:54:26;17.30;99.90
2212;DHT22;48849;48.758;9.158;2022-10-31T11:56:54;17.30;99.90
2212;DHT22;48849;48.758;9.158;2022-10-31T11:59:25;17.30;99.90
2212;DHT22;48849;48.758;9.158;2022-10-31T12:01:54;17.30;99.90
2212;DHT22;48849;48.758;9.158;2022-10-31T12:04:31;17.30;99.90
2212;DHT22;48849;48.758;9.158;2022-10-31T12:07:00;17.30;99.90
2212;DHT22;48849;48.758;9.158;2022-10-31T12:09:30;17.40;99.90
2212;DHT22;48849;48.758;9.158;2022-10-31T12:12:15;17.40;99.90
2212;DHT22;48849;48.758;9.158;2022-10-31T12:14:53;18.70;99.90
2212;DHT22;48849;48.758;9.158;2022-10-31T12:17:23;17.40;99.90
2212;DHT22;48849;48.758;9.158;2022-10-31T12:20:01;17.40;99.90
2212;DHT22;48849;48.758;9.158;2022-10-31T12:22:38;17.40;99.90
2212;DHT22;48849;48.758;9.158;2022-10-31T12:25:21;17.40;99.90
2212;DHT22;48849;48.758;9.158;2022-10-31T12:28:03;17.40;99.90
2212;DHT22;48849;48.758;9.158;2022-10-31T12:30:43;17.40;99.90
2212;DHT22;48849;48.758;9.158;2022-10-31T12:33:25;17.40;99.90
2212;DHT22;48849;48.758;9.158;2022-10-31T12:36:02;17.50;99.90
2212;DHT22;48849;48.758;9.158;2022-10-31T12:38:57;17.50;99.90
2212;DHT22;48849;48.758;9.158;2022-10-31T12:41:40;17.50;99.90
2212;DHT22;48849;48.758;9.158;2022-10-31T12:44:19;17.40;99.90
2212;DHT22;48849;48.758;9.158;2022-10-31T12:47:01;17.50;99.90
2212;DHT22;48849;48.758;9.158;2022-10-31T12:49:48;17.40;99.90
2212;DHT22;48849;48.758;9.158;2022-10-31T12:52:28;17.40;99.90
2212;DHT22;48849;48.758;9.158;2022-10-31T12:55:10;17.40;99.90
2212;DHT22;48849;48.758;9.158;2022-10-31T12:57:42;17.40;99.90
2212;DHT22;48849;48.758;9.158;2022-10-31T13:00:12;17.40;99.90
2212;DHT22;48849;48.758;9.158;2022-10-31T13:02:44;17.40;99.90
2212;DHT22;48849;48.758;9.158;2022-10-31T13:05:16;17.40;99.90
2212;DHT22;48849;48.758;9.158;2022-10-31T13:07:47;17.40;99.90
2212;DHT22;48849;48.758;9.158;2022-10-31T13:10:17;17.40;99.90
2212;DHT22;48849;48.758;9.158;2022-10-31T13:12:50;17.40;99.90
2212;DHT22;48849;48.758;9.158;2022-10-31T13:15:20;17.40;99.90
2212;DHT22;48849;48.758;9.158;2022-10-31T13:17:50;17.40;99.90
2212;DHT22;48849;48.758;9.158;2022-10-31T13:20:22;17.40;99.90
2212;DHT22;48849;48.758;9.158;2022-10-31T13:22:53;17.40;99.90
2212;DHT22;48849;48.758;9.158;2022-10-31T13:25:23;17.40;99.90
2212;DHT22;48849;48.758;9.158;2022-10-31T13:27:55;17.40;99.90
2212;DHT22;48849;48.758;9.158;2022-10-31T13:30:25;17.40;99.90
2212;DHT22;48849;48.758;9.158;2022-10-31T13:32:55;17.40;99.90
2212;DHT22;48849;48.758;9.158;2022-10-31T13:35:29;17.40;99.90
2212;DHT22;48849;48.758;9.158;2022-10-31T13:38:08;17.40;99.90
2212;DHT22;48849;48.758;9.158;2022-10-31T13:40:42;17.40;99.90
2212;DHT22;48849;48.758;9.158;2022-10-31T13:43:22;17.40;99.90
2212;DHT22;48849;48.758;9.158;2022-10-31T13:45:52;17.50;99.90
2212;DHT22;48849;48.758;9.158;2022-10-31T13:48:38;17.50;99.90
2212;DHT22;48849;48.758;9.158;2022-10-31T13:51:08;17.50;99.90
2212;DHT22;48849;48.758;9.158;2022-10-31T13:53:38;17.50;99.90
2212;DHT22;48849;48.758;9.158;2022-10-31T13:56:15;17.50;99.90
2212;DHT22;48849;48.758;9.158;2022-10-31T13:59:10;17.50;99.90
2212;DHT22;48849;48.758;9.158;2022-10-31T14:01:46;17.50;99.90
2212;DHT22;48849;48.758;9.158;2022-10-31T14:04:15;17.60;99.90
2212;DHT22;48849;48.758;9.158;2022-10-31T14:06:51;17.50;99.90
2212;DHT22;48849;48.758;9.158;2022-10-31T14:09:22;17.50;99.90
2212;DHT22;48849;48.758;9.158;2022-10-31T14:11:50;17.60;99.90
2212;DHT22;48849;48.758;9.158;2022-10-31T14:14:19;17.50;99.90
2212;DHT22;48849;48.758;9.158;2022-10-31T14:16:54;17.50;99.90
2212;DHT22;48849;48.758;9.158;2022-10-31T14:19:22;17.50;99.90
2212;DHT22;48849;48.758;9.158;2022-10-31T14:21:49;17.50;99.90
2212;DHT22;48849;48.758;9.158;2022-10-31T14:24:32;17.50;99.90
2212;DHT22;48849;48.758;9.158;2022-10-31T14:27:01;17.60;99.90
2212;DHT22;48849;48.758;9.158;2022-10-31T14:29:31;17.60;99.90
2212;DHT22;48849;48.758;9.158;2022-10-31T14:32:06;17.50;99.90
2212;DHT22;48849;48.758;9.158;2022-10-31T14:34:52;17.50;99.90
2212;DHT22;48849;48.758;9.158;2022-10-31T14:37:35;17.50;99.90
2212;DHT22;48849;48.758;9.158;2022-10-31T14:40:19;17.50;99.90
2212;DHT22;48849;48.758;9.158;2022-10-31T14:43:00;17.50;99.90
2212;DHT22;48849;48.758;9.158;2022-10-31T14:45:40;17.50;99.90
2212;DHT22;48849;48.758;9.158;2022-10-31T14:49:04;17.50;99.90
2212;DHT22;48849;48.758;9.158;2022-10-31T14:51:38;17.50;99.90
2212;DHT22;48849;48.758;9.158;2022-10-31T14:54:10;17.40;99.90
2212;DHT22;48849;48.758;9.158;2022-10-31T14:56:50;17.40;99.90
2212;DHT22;48849;48.758;9.158;2022-10-31T14:59:21;17.40;99.90
2212;DHT22;48849;48.758;9.158;2022-10-31T15:01:56;17.40;99.90
2212;DHT22;48849;48.758;9.158;2022-10-31T15:04:38;17.40;99.90
2212;DHT22;48849;48.758;9.158;2022-10-31T15:07:10;17.40;99.90
2212;DHT22;48849;48.758;9.158;2022-10-31T15:09:40;17.40;99.90
2212;DHT22;48849;48.758;9.158;2022-10-31T15:12:23;17.40;99.90
2212;DHT22;48849;48.758;9.158;2022-10-31T15:14:51;17.30;99.90
2212;DHT22;48849;48.758;9.158;2022-10-31T15:17:19;17.40;99.90
2212;DHT22;48849;48.758;9.158;2022-10-31T15:19:47;17.30;99.90
2212;DHT22;48849;48.758;9.158;2022-10-31T15:22:15;17.30;99.90
2212;DHT22;48849;48.758;9.158;2022-10-31T15:24:43;17.30;99.90
2212;DHT22;48849;48.758;9.158;2022-10-31T15:27:12;17.30;99.90
2212;DHT22;48849;48.758;9.158;2022-10-31T15:29:48;17.30;99.90
2212;DHT22;48849;48.758;9.158;2022-10-31T15:32:20;17.30;99.90
2212;DHT22;48849;48.758;9.158;2022-10-31T15:34:49;17.40;99.90
2212;DHT22;48849;48.758;9.158;2022-10-31T15:37:17;17.30;99.90
2212;DHT22;48849;48.758;9.158;2022-10-31T15:39:45;17.60;99.90
2212;DHT22;48849;48.758;9.158;2022-10-31T15:42:20;17.30;99.90
2212;DHT22;48849;48.758;9.158;2022-10-31T15:44:50;17.20;99.90
2212;DHT22;48849;48.758;9.158;2022-10-31T15:47:21;17.20;99.90
2212;DHT22;48849;48.758;9.158;2022-10-31T15:49:51;17.20;99.90
2212;DHT22;48849;48.758;9.158;2022-10-31T15:52:25;17.30;99.90
2212;DHT22;48849;48.758;9.158;2022-10-31T15:54:57;17.20;99.90
2212;DHT22;48849;48.758;9.158;2022-10-31T15:57:25;17.20;99.90
2212;DHT22;48849;48.758;9.158;2022-10-31T15:59:53;17.20;99.90
2212;DHT22;48849;48.758;9.158;2022-10-31T16:02:26;17.20;99.90
2212;DHT22;48849;48.758;9.158;2022-10-31T16:04:55;17.20;99.90
2212;DHT22;48849;48.758;9.158;2022-10-31T16:07:23;17.20;99.90